메인 페이지
METAR-TAF:

METAR-TAF

공항 :

브뤼셀 공항

브뤼셀, 벨기에

위도: 50-54N, 경도: 004-32E, 고도: 55m

현재 날씨관측

예보는 20분 전, 00:50시(UTC)에 발표되었습니다.
남서6kt
온도 16°C
습도 82%
기압 1019 hPa
시정 10km 이상
1500m 미만 상공 구름 및 적란운 없음

METAR: EBBR 150050Z 22006KT CAVOK 16/13 Q1019 NOSIG

시각: 03:10 (01:10 UTC)

예보

예보는 1 시간 50분 전, 23:20시(UTC)에 발표되었습니다.
예보 대상 시간: 15일 00시부터 16일 06시까지 (UTC)
서남서7kt
시정 10km 이상
고도 4700ft 상공 구름 조금
확률 40% :
일시적
15일 02시부터 15일 08시까지 (UTC)
고도 700ft 상공 구름 많음
확률 30% :
일시적
15일 03시부터 15일 08시까지 (UTC)
시정: 3800m
고도 400ft 상공 구름 많음
박무

TAF: EBBR 142320Z 1500/1606 24007KT 9999 FEW047 PROB40 TEMPO 1502/1508 BKN007 PROB30 TEMPO 1503/1508 3800 BR BKN004

4,000개 이상의 공항 관측 자료 및 예보 (METAR 및 TAF 보고).

지도상에서 검색 가능한 기상관측소가 노란 점과 빨간 점으로 표시되어 있습니다.

기상관측소 명을 보려면 표시 위로 마우스를 이동하세요.

날씨 관측과 예보를 보려면 클릭하세요.

지도 변경 : 확대하려면 엑스 표시가 있는 녹색 버튼, 축소하려면 빼기 표시가 있는 녹색 버튼, 다음 페이지의 지도를 보려면 녹색 화살표를 클릭하세요.


METAR-TAF: